sensor_id;sensor_type;location;lat;lon;timestamp;P1;durP1;ratioP1;P2;durP2;ratioP2
69542;SDS011;56762;49.494;11.768;2023-01-30T00:01:58;16.40;;;7.10;;
69542;SDS011;56762;49.494;11.768;2023-01-30T00:04:25;15.13;;;6.18;;
69542;SDS011;56762;49.494;11.768;2023-01-30T00:06:53;20.50;;;7.10;;
69542;SDS011;56762;49.494;11.768;2023-01-30T00:09:21;14.98;;;6.47;;
69542;SDS011;56762;49.494;11.768;2023-01-30T00:11:50;16.38;;;7.22;;
69542;SDS011;56762;49.494;11.768;2023-01-30T00:14:20;13.03;;;6.57;;
69542;SDS011;56762;49.494;11.768;2023-01-30T00:16:48;18.67;;;7.18;;
69542;SDS011;56762;49.494;11.768;2023-01-30T00:19:16;21.10;;;7.70;;
69542;SDS011;56762;49.494;11.768;2023-01-30T00:21:44;16.75;;;6.97;;
69542;SDS011;56762;49.494;11.768;2023-01-30T00:24:12;16.88;;;6.43;;
69542;SDS011;56762;49.494;11.768;2023-01-30T00:26:40;17.43;;;6.80;;
69542;SDS011;56762;49.494;11.768;2023-01-30T00:29:07;17.90;;;7.15;;
69542;SDS011;56762;49.494;11.768;2023-01-30T00:31:37;15.75;;;6.85;;
69542;SDS011;56762;49.494;11.768;2023-01-30T00:34:04;17.98;;;6.28;;
69542;SDS011;56762;49.494;11.768;2023-01-30T00:36:33;15.90;;;6.65;;
69542;SDS011;56762;49.494;11.768;2023-01-30T00:39:01;15.57;;;6.43;;
69542;SDS011;56762;49.494;11.768;2023-01-30T00:41:28;17.33;;;7.15;;
69542;SDS011;56762;49.494;11.768;2023-01-30T00:44:17;16.95;;;7.50;;
69542;SDS011;56762;49.494;11.768;2023-01-30T00:47:04;16.25;;;6.93;;
69542;SDS011;56762;49.494;11.768;2023-01-30T00:49:32;15.50;;;7.25;;
69542;SDS011;56762;49.494;11.768;2023-01-30T00:52:00;18.70;;;7.60;;
69542;SDS011;56762;49.494;11.768;2023-01-30T00:54:28;16.75;;;7.38;;
69542;SDS011;56762;49.494;11.768;2023-01-30T00:56:56;13.38;;;6.75;;
69542;SDS011;56762;49.494;11.768;2023-01-30T00:59:24;19.42;;;7.85;;
69542;SDS011;56762;49.494;11.768;2023-01-30T01:01:52;16.45;;;7.95;;
69542;SDS011;56762;49.494;11.768;2023-01-30T01:04:22;16.60;;;7.23;;
69542;SDS011;56762;49.494;11.768;2023-01-30T01:06:49;15.85;;;6.78;;
69542;SDS011;56762;49.494;11.768;2023-01-30T01:09:18;16.50;;;7.28;;
69542;SDS011;56762;49.494;11.768;2023-01-30T01:11:45;17.40;;;7.15;;
69542;SDS011;56762;49.494;11.768;2023-01-30T01:14:14;17.30;;;6.43;;
69542;SDS011;56762;49.494;11.768;2023-01-30T01:16:42;17.33;;;7.80;;
69542;SDS011;56762;49.494;11.768;2023-01-30T01:19:10;20.83;;;7.82;;
69542;SDS011;56762;49.494;11.768;2023-01-30T01:21:39;18.45;;;7.63;;
69542;SDS011;56762;49.494;11.768;2023-01-30T01:24:08;18.33;;;7.47;;
69542;SDS011;56762;49.494;11.768;2023-01-30T01:26:39;18.63;;;8.02;;
69542;SDS011;56762;49.494;11.768;2023-01-30T01:29:09;17.47;;;7.30;;
69542;SDS011;56762;49.494;11.768;2023-01-30T01:31:38;16.10;;;6.72;;
69542;SDS011;56762;49.494;11.768;2023-01-30T01:34:06;19.95;;;7.30;;
69542;SDS011;56762;49.494;11.768;2023-01-30T01:36:34;17.63;;;7.22;;
69542;SDS011;56762;49.494;11.768;2023-01-30T01:39:21;18.85;;;7.93;;
69542;SDS011;56762;49.494;11.768;2023-01-30T01:41:50;17.63;;;7.57;;
69542;SDS011;56762;49.494;11.768;2023-01-30T01:44:17;18.35;;;7.40;;
69542;SDS011;56762;49.494;11.768;2023-01-30T01:46:45;17.30;;;7.70;;
69542;SDS011;56762;49.494;11.768;2023-01-30T01:49:19;19.15;;;7.80;;
69542;SDS011;56762;49.494;11.768;2023-01-30T01:51:50;18.77;;;7.88;;
69542;SDS011;56762;49.494;11.768;2023-01-30T01:54:24;17.97;;;7.17;;
69542;SDS011;56762;49.494;11.768;2023-01-30T01:56:56;16.50;;;7.55;;
69542;SDS011;56762;49.494;11.768;2023-01-30T01:59:29;14.43;;;7.00;;
69542;SDS011;56762;49.494;11.768;2023-01-30T02:02:01;28.38;;;9.00;;
69542;SDS011;56762;49.494;11.768;2023-01-30T02:04:32;22.17;;;9.88;;
69542;SDS011;56762;49.494;11.768;2023-01-30T02:07:19;17.10;;;6.40;;
69542;SDS011;56762;49.494;11.768;2023-01-30T02:09:49;16.23;;;6.90;;
69542;SDS011;56762;49.494;11.768;2023-01-30T02:12:18;15.27;;;6.93;;
69542;SDS011;56762;49.494;11.768;2023-01-30T02:14:46;15.48;;;6.55;;
69542;SDS011;56762;49.494;11.768;2023-01-30T02:17:15;17.00;;;7.40;;
69542;SDS011;56762;49.494;11.768;2023-01-30T02:19:45;14.77;;;6.73;;
69542;SDS011;56762;49.494;11.768;2023-01-30T02:22:35;15.13;;;7.25;;
69542;SDS011;56762;49.494;11.768;2023-01-30T02:25:25;15.45;;;6.53;;
69542;SDS011;56762;49.494;11.768;2023-01-30T02:28:25;15.98;;;7.20;;
69542;SDS011;56762;49.494;11.768;2023-01-30T02:34:06;13.77;;;6.03;;
69542;SDS011;56762;49.494;11.768;2023-01-30T02:36:44;17.92;;;7.00;;
69542;SDS011;56762;49.494;11.768;2023-01-30T02:39:19;16.23;;;6.80;;
69542;SDS011;56762;49.494;11.768;2023-01-30T02:41:59;16.35;;;7.22;;
69542;SDS011;56762;49.494;11.768;2023-01-30T02:44:32;14.82;;;6.90;;
69542;SDS011;56762;49.494;11.768;2023-01-30T02:47:08;15.37;;;7.10;;
69542;SDS011;56762;49.494;11.768;2023-01-30T02:49:41;15.05;;;6.70;;
69542;SDS011;56762;49.494;11.768;2023-01-30T02:52:14;14.88;;;6.32;;
69542;SDS011;56762;49.494;11.768;2023-01-30T02:54:43;16.40;;;6.30;;
69542;SDS011;56762;49.494;11.768;2023-01-30T02:57:16;16.98;;;6.72;;
69542;SDS011;56762;49.494;11.768;2023-01-30T02:59:47;15.60;;;7.00;;
69542;SDS011;56762;49.494;11.768;2023-01-30T03:02:21;15.80;;;6.88;;
69542;SDS011;56762;49.494;11.768;2023-01-30T03:05:00;18.55;;;7.00;;
69542;SDS011;56762;49.494;11.768;2023-01-30T03:07:42;13.43;;;6.15;;
69542;SDS011;56762;49.494;11.768;2023-01-30T03:10:18;15.02;;;6.13;;
69542;SDS011;56762;49.494;11.768;2023-01-30T03:12:53;15.10;;;6.30;;
69542;SDS011;56762;49.494;11.768;2023-01-30T03:15:30;15.18;;;6.63;;
69542;SDS011;56762;49.494;11.768;2023-01-30T03:18:03;14.75;;;6.13;;
69542;SDS011;56762;49.494;11.768;2023-01-30T03:20:34;15.20;;;5.82;;
69542;SDS011;56762;49.494;11.768;2023-01-30T03:23:03;14.85;;;6.13;;
69542;SDS011;56762;49.494;11.768;2023-01-30T03:25:31;13.93;;;6.13;;
69542;SDS011;56762;49.494;11.768;2023-01-30T03:28:00;16.23;;;6.63;;
69542;SDS011;56762;49.494;11.768;2023-01-30T03:30:30;15.80;;;6.70;;
69542;SDS011;56762;49.494;11.768;2023-01-30T03:32:57;13.27;;;6.38;;
69542;SDS011;56762;49.494;11.768;2023-01-30T03:35:28;13.77;;;6.43;;
69542;SDS011;56762;49.494;11.768;2023-01-30T03:37:56;12.17;;;6.20;;
69542;SDS011;56762;49.494;11.768;2023-01-30T03:40:25;14.75;;;6.07;;
69542;SDS011;56762;49.494;11.768;2023-01-30T03:42:53;14.98;;;6.95;;
69542;SDS011;56762;49.494;11.768;2023-01-30T03:45:21;15.45;;;6.50;;
69542;SDS011;56762;49.494;11.768;2023-01-30T03:47:49;13.13;;;5.88;;
69542;SDS011;56762;49.494;11.768;2023-01-30T03:50:17;13.23;;;6.00;;
69542;SDS011;56762;49.494;11.768;2023-01-30T03:52:46;18.10;;;6.82;;
69542;SDS011;56762;49.494;11.768;2023-01-30T03:55:14;12.93;;;6.13;;
69542;SDS011;56762;49.494;11.768;2023-01-30T03:57:43;13.85;;;5.95;;
69542;SDS011;56762;49.494;11.768;2023-01-30T04:00:11;13.30;;;5.80;;
69542;SDS011;56762;49.494;11.768;2023-01-30T04:02:39;15.13;;;6.30;;
69542;SDS011;56762;49.494;11.768;2023-01-30T04:05:08;16.60;;;6.30;;
69542;SDS011;56762;49.494;11.768;2023-01-30T04:07:35;15.57;;;6.20;;
69542;SDS011;56762;49.494;11.768;2023-01-30T04:10:05;16.23;;;6.43;;
69542;SDS011;56762;49.494;11.768;2023-01-30T04:12:36;15.55;;;6.35;;
69542;SDS011;56762;49.494;11.768;2023-01-30T04:15:04;16.13;;;7.10;;
69542;SDS011;56762;49.494;11.768;2023-01-30T04:17:33;15.88;;;6.88;;
69542;SDS011;56762;49.494;11.768;2023-01-30T04:20:01;13.45;;;6.30;;
69542;SDS011;56762;49.494;11.768;2023-01-30T04:22:29;14.18;;;6.30;;
69542;SDS011;56762;49.494;11.768;2023-01-30T04:24:57;15.65;;;6.82;;
69542;SDS011;56762;49.494;11.768;2023-01-30T04:27:26;15.30;;;7.07;;
69542;SDS011;56762;49.494;11.768;2023-01-30T04:29:54;11.95;;;5.75;;
69542;SDS011;56762;49.494;11.768;2023-01-30T04:32:21;14.50;;;6.05;;
69542;SDS011;56762;49.494;11.768;2023-01-30T04:34:49;12.68;;;6.20;;
69542;SDS011;56762;49.494;11.768;2023-01-30T04:37:17;13.32;;;5.70;;
69542;SDS011;56762;49.494;11.768;2023-01-30T04:39:44;12.27;;;5.63;;
69542;SDS011;56762;49.494;11.768;2023-01-30T04:42:12;11.45;;;5.63;;
69542;SDS011;56762;49.494;11.768;2023-01-30T04:44:41;13.35;;;5.63;;
69542;SDS011;56762;49.494;11.768;2023-01-30T04:47:09;12.88;;;5.30;;
69542;SDS011;56762;49.494;11.768;2023-01-30T04:49:36;14.52;;;6.68;;
69542;SDS011;56762;49.494;11.768;2023-01-30T04:52:04;13.13;;;5.97;;
69542;SDS011;56762;49.494;11.768;2023-01-30T04:54:33;11.35;;;5.13;;
69542;SDS011;56762;49.494;11.768;2023-01-30T04:57:01;12.52;;;5.53;;
69542;SDS011;56762;49.494;11.768;2023-01-30T04:59:29;13.48;;;5.47;;
69542;SDS011;56762;49.494;11.768;2023-01-30T05:01:58;10.88;;;5.05;;
69542;SDS011;56762;49.494;11.768;2023-01-30T05:04:26;12.17;;;5.00;;
69542;SDS011;56762;49.494;11.768;2023-01-30T05:06:54;14.88;;;5.55;;
69542;SDS011;56762;49.494;11.768;2023-01-30T05:09:22;12.40;;;5.65;;
69542;SDS011;56762;49.494;11.768;2023-01-30T05:11:49;10.32;;;4.65;;
69542;SDS011;56762;49.494;11.768;2023-01-30T05:14:17;12.80;;;5.85;;
69542;SDS011;56762;49.494;11.768;2023-01-30T05:16:45;13.57;;;6.13;;
69542;SDS011;56762;49.494;11.768;2023-01-30T05:19:14;13.55;;;5.75;;
69542;SDS011;56762;49.494;11.768;2023-01-30T05:21:42;12.77;;;5.72;;
69542;SDS011;56762;49.494;11.768;2023-01-30T05:24:09;11.50;;;5.32;;
69542;SDS011;56762;49.494;11.768;2023-01-30T05:26:37;13.98;;;6.15;;
69542;SDS011;56762;49.494;11.768;2023-01-30T05:29:05;11.00;;;5.20;;
69542;SDS011;56762;49.494;11.768;2023-01-30T05:31:33;10.07;;;5.68;;
69542;SDS011;56762;49.494;11.768;2023-01-30T05:34:01;11.93;;;5.57;;
69542;SDS011;56762;49.494;11.768;2023-01-30T05:36:30;11.38;;;5.22;;
69542;SDS011;56762;49.494;11.768;2023-01-30T05:38:58;11.70;;;5.22;;
69542;SDS011;56762;49.494;11.768;2023-01-30T05:41:26;11.57;;;5.37;;
69542;SDS011;56762;49.494;11.768;2023-01-30T05:43:54;10.32;;;4.25;;
69542;SDS011;56762;49.494;11.768;2023-01-30T05:46:21;10.93;;;4.57;;
69542;SDS011;56762;49.494;11.768;2023-01-30T05:48:49;14.18;;;6.18;;
69542;SDS011;56762;49.494;11.768;2023-01-30T05:51:18;10.50;;;4.88;;
69542;SDS011;56762;49.494;11.768;2023-01-30T05:53:49;9.53;;;4.73;;
69542;SDS011;56762;49.494;11.768;2023-01-30T05:56:17;12.05;;;5.43;;
69542;SDS011;56762;49.494;11.768;2023-01-30T05:58:48;9.93;;;4.50;;
69542;SDS011;56762;49.494;11.768;2023-01-30T06:01:17;9.85;;;4.35;;
69542;SDS011;56762;49.494;11.768;2023-01-30T06:03:45;10.82;;;4.68;;
69542;SDS011;56762;49.494;11.768;2023-01-30T06:06:13;12.70;;;5.57;;
69542;SDS011;56762;49.494;11.768;2023-01-30T06:08:42;9.60;;;4.05;;
69542;SDS011;56762;49.494;11.768;2023-01-30T06:11:11;9.93;;;4.43;;
69542;SDS011;56762;49.494;11.768;2023-01-30T06:13:40;11.57;;;4.15;;
69542;SDS011;56762;49.494;11.768;2023-01-30T06:16:12;9.57;;;4.60;;
69542;SDS011;56762;49.494;11.768;2023-01-30T06:18:41;10.57;;;4.80;;
69542;SDS011;56762;49.494;11.768;2023-01-30T06:21:11;11.80;;;5.00;;
69542;SDS011;56762;49.494;11.768;2023-01-30T06:23:39;9.25;;;4.07;;
69542;SDS011;56762;49.494;11.768;2023-01-30T06:26:07;9.38;;;4.18;;
69542;SDS011;56762;49.494;11.768;2023-01-30T06:28:37;10.20;;;4.40;;
69542;SDS011;56762;49.494;11.768;2023-01-30T06:31:05;10.43;;;4.20;;
69542;SDS011;56762;49.494;11.768;2023-01-30T06:33:34;11.80;;;5.05;;
69542;SDS011;56762;49.494;11.768;2023-01-30T06:36:02;11.88;;;4.25;;
69542;SDS011;56762;49.494;11.768;2023-01-30T06:38:30;11.27;;;4.60;;
69542;SDS011;56762;49.494;11.768;2023-01-30T06:40:58;11.88;;;5.03;;
69542;SDS011;56762;49.494;11.768;2023-01-30T06:43:26;10.80;;;4.77;;
69542;SDS011;56762;49.494;11.768;2023-01-30T06:45:56;11.57;;;5.18;;
69542;SDS011;56762;49.494;11.768;2023-01-30T06:48:25;9.95;;;4.68;;
69542;SDS011;56762;49.494;11.768;2023-01-30T06:50:53;12.90;;;4.68;;
69542;SDS011;56762;49.494;11.768;2023-01-30T06:53:20;11.60;;;5.32;;
69542;SDS011;56762;49.494;11.768;2023-01-30T06:55:55;9.33;;;4.60;;
69542;SDS011;56762;49.494;11.768;2023-01-30T06:58:23;11.15;;;5.63;;
69542;SDS011;56762;49.494;11.768;2023-01-30T07:00:51;10.23;;;4.68;;
69542;SDS011;56762;49.494;11.768;2023-01-30T07:03:20;13.45;;;6.55;;
69542;SDS011;56762;49.494;11.768;2023-01-30T07:05:48;68.43;;;28.17;;
69542;SDS011;56762;49.494;11.768;2023-01-30T07:08:16;13.60;;;6.77;;
69542;SDS011;56762;49.494;11.768;2023-01-30T07:10:44;12.40;;;5.28;;
69542;SDS011;56762;49.494;11.768;2023-01-30T07:13:12;15.88;;;7.45;;
69542;SDS011;56762;49.494;11.768;2023-01-30T07:15:40;12.52;;;5.45;;
69542;SDS011;56762;49.494;11.768;2023-01-30T07:18:08;12.90;;;5.63;;
69542;SDS011;56762;49.494;11.768;2023-01-30T07:20:37;14.90;;;6.80;;
69542;SDS011;56762;49.494;11.768;2023-01-30T07:23:05;13.15;;;6.32;;
69542;SDS011;56762;49.494;11.768;2023-01-30T07:25:33;11.93;;;5.45;;
69542;SDS011;56762;49.494;11.768;2023-01-30T07:28:01;14.38;;;6.38;;
69542;SDS011;56762;49.494;11.768;2023-01-30T07:30:32;12.63;;;5.70;;
69542;SDS011;56762;49.494;11.768;2023-01-30T07:33:02;15.83;;;6.03;;
69542;SDS011;56762;49.494;11.768;2023-01-30T07:35:31;12.80;;;5.55;;
69542;SDS011;56762;49.494;11.768;2023-01-30T07:38:02;11.52;;;5.32;;
69542;SDS011;56762;49.494;11.768;2023-01-30T07:40:30;12.93;;;5.97;;
69542;SDS011;56762;49.494;11.768;2023-01-30T07:42:59;13.38;;;6.10;;
69542;SDS011;56762;49.494;11.768;2023-01-30T07:45:29;10.63;;;4.63;;
69542;SDS011;56762;49.494;11.768;2023-01-30T07:48:01;15.80;;;6.95;;
69542;SDS011;56762;49.494;11.768;2023-01-30T07:50:28;11.15;;;5.32;;
69542;SDS011;56762;49.494;11.768;2023-01-30T07:52:56;11.60;;;5.13;;
69542;SDS011;56762;49.494;11.768;2023-01-30T07:55:25;11.98;;;4.97;;
69542;SDS011;56762;49.494;11.768;2023-01-30T07:57:53;13.70;;;6.07;;
69542;SDS011;56762;49.494;11.768;2023-01-30T08:00:21;16.15;;;5.97;;
69542;SDS011;56762;49.494;11.768;2023-01-30T08:02:49;12.88;;;5.05;;
69542;SDS011;56762;49.494;11.768;2023-01-30T08:05:17;14.43;;;5.78;;
69542;SDS011;56762;49.494;11.768;2023-01-30T08:07:44;14.13;;;5.95;;
69542;SDS011;56762;49.494;11.768;2023-01-30T08:10:14;14.43;;;5.60;;
69542;SDS011;56762;49.494;11.768;2023-01-30T08:12:44;12.27;;;5.13;;
69542;SDS011;56762;49.494;11.768;2023-01-30T08:15:12;18.58;;;6.47;;
69542;SDS011;56762;49.494;11.768;2023-01-30T08:17:40;11.38;;;5.30;;
69542;SDS011;56762;49.494;11.768;2023-01-30T08:20:08;10.93;;;5.13;;
69542;SDS011;56762;49.494;11.768;2023-01-30T08:22:36;14.53;;;5.67;;
69542;SDS011;56762;49.494;11.768;2023-01-30T08:25:04;13.27;;;5.18;;
69542;SDS011;56762;49.494;11.768;2023-01-30T08:27:33;18.10;;;7.70;;
69542;SDS011;56762;49.494;11.768;2023-01-30T08:30:02;14.77;;;5.80;;
69542;SDS011;56762;49.494;11.768;2023-01-30T08:32:30;14.30;;;5.55;;
69542;SDS011;56762;49.494;11.768;2023-01-30T08:34:58;11.17;;;5.03;;
69542;SDS011;56762;49.494;11.768;2023-01-30T08:37:26;12.43;;;5.65;;
69542;SDS011;56762;49.494;11.768;2023-01-30T08:39:54;14.57;;;5.45;;
69542;SDS011;56762;49.494;11.768;2023-01-30T08:42:22;10.63;;;4.30;;
69542;SDS011;56762;49.494;11.768;2023-01-30T08:44:50;9.48;;;4.35;;
69542;SDS011;56762;49.494;11.768;2023-01-30T08:47:18;14.27;;;5.57;;
69542;SDS011;56762;49.494;11.768;2023-01-30T08:49:46;12.00;;;5.03;;
69542;SDS011;56762;49.494;11.768;2023-01-30T08:52:16;11.38;;;4.55;;
69542;SDS011;56762;49.494;11.768;2023-01-30T08:54:44;12.65;;;4.03;;
69542;SDS011;56762;49.494;11.768;2023-01-30T08:57:12;14.18;;;4.90;;
69542;SDS011;56762;49.494;11.768;2023-01-30T08:59:40;13.17;;;5.40;;
69542;SDS011;56762;49.494;11.768;2023-01-30T09:02:08;14.77;;;5.50;;
69542;SDS011;56762;49.494;11.768;2023-01-30T09:04:37;11.57;;;5.15;;
69542;SDS011;56762;49.494;11.768;2023-01-30T09:07:05;15.13;;;5.32;;
69542;SDS011;56762;49.494;11.768;2023-01-30T09:09:33;12.38;;;4.38;;
69542;SDS011;56762;49.494;11.768;2023-01-30T09:12:02;13.03;;;5.07;;
69542;SDS011;56762;49.494;11.768;2023-01-30T09:14:29;16.98;;;6.13;;
69542;SDS011;56762;49.494;11.768;2023-01-30T09:16:57;11.23;;;4.65;;
69542;SDS011;56762;49.494;11.768;2023-01-30T09:19:26;18.52;;;6.18;;
69542;SDS011;56762;49.494;11.768;2023-01-30T09:21:55;10.73;;;4.53;;
69542;SDS011;56762;49.494;11.768;2023-01-30T09:24:23;15.87;;;7.20;;
69542;SDS011;56762;49.494;11.768;2023-01-30T09:26:52;16.60;;;5.00;;
69542;SDS011;56762;49.494;11.768;2023-01-30T09:29:22;11.23;;;4.53;;
69542;SDS011;56762;49.494;11.768;2023-01-30T09:31:50;10.30;;;4.38;;
69542;SDS011;56762;49.494;11.768;2023-01-30T09:34:18;15.18;;;5.68;;
69542;SDS011;56762;49.494;11.768;2023-01-30T09:36:46;10.63;;;4.10;;
69542;SDS011;56762;49.494;11.768;2023-01-30T09:39:15;11.52;;;4.70;;
69542;SDS011;56762;49.494;11.768;2023-01-30T09:41:47;14.10;;;5.65;;
69542;SDS011;56762;49.494;11.768;2023-01-30T09:44:29;13.93;;;5.35;;
69542;SDS011;56762;49.494;11.768;2023-01-30T09:47:10;16.83;;;6.75;;
69542;SDS011;56762;49.494;11.768;2023-01-30T09:49:42;15.83;;;5.80;;
69542;SDS011;56762;49.494;11.768;2023-01-30T09:52:21;14.10;;;5.78;;
69542;SDS011;56762;49.494;11.768;2023-01-30T09:54:59;13.55;;;5.00;;
69542;SDS011;56762;49.494;11.768;2023-01-30T09:57:40;8.30;;;3.60;;
69542;SDS011;56762;49.494;11.768;2023-01-30T10:00:09;17.60;;;5.95;;
69542;SDS011;56762;49.494;11.768;2023-01-30T10:02:46;15.70;;;5.80;;
69542;SDS011;56762;49.494;11.768;2023-01-30T10:05:18;12.95;;;4.38;;
69542;SDS011;56762;49.494;11.768;2023-01-30T10:07:49;11.07;;;4.28;;
69542;SDS011;56762;49.494;11.768;2023-01-30T10:10:32;8.52;;;3.78;;
69542;SDS011;56762;49.494;11.768;2023-01-30T10:13:11;13.23;;;4.68;;
69542;SDS011;56762;49.494;11.768;2023-01-30T10:15:55;7.77;;;3.73;;
69542;SDS011;56762;49.494;11.768;2023-01-30T10:18:42;7.78;;;3.00;;
69542;SDS011;56762;49.494;11.768;2023-01-30T10:21:36;6.88;;;2.72;;
69542;SDS011;56762;49.494;11.768;2023-01-30T10:24:16;7.18;;;2.92;;
69542;SDS011;56762;49.494;11.768;2023-01-30T10:26:54;6.47;;;3.17;;
69542;SDS011;56762;49.494;11.768;2023-01-30T10:29:24;8.20;;;3.50;;
69542;SDS011;56762;49.494;11.768;2023-01-30T10:31:57;8.82;;;3.72;;
69542;SDS011;56762;49.494;11.768;2023-01-30T10:34:30;8.77;;;3.72;;
69542;SDS011;56762;49.494;11.768;2023-01-30T10:37:01;8.35;;;3.38;;
69542;SDS011;56762;49.494;11.768;2023-01-30T10:39:35;8.65;;;3.28;;
69542;SDS011;56762;49.494;11.768;2023-01-30T10:42:25;9.73;;;3.87;;
69542;SDS011;56762;49.494;11.768;2023-01-30T10:44:56;8.20;;;4.03;;
69542;SDS011;56762;49.494;11.768;2023-01-30T10:47:31;9.52;;;4.05;;
69542;SDS011;56762;49.494;11.768;2023-01-30T10:50:14;9.60;;;4.00;;
69542;SDS011;56762;49.494;11.768;2023-01-30T10:52:45;8.18;;;3.28;;
69542;SDS011;56762;49.494;11.768;2023-01-30T10:55:22;6.90;;;3.33;;
69542;SDS011;56762;49.494;11.768;2023-01-30T10:58:07;8.13;;;3.40;;
69542;SDS011;56762;49.494;11.768;2023-01-30T11:00:45;11.23;;;4.00;;
69542;SDS011;56762;49.494;11.768;2023-01-30T11:03:23;8.02;;;3.60;;
69542;SDS011;56762;49.494;11.768;2023-01-30T11:05:55;8.98;;;3.63;;
69542;SDS011;56762;49.494;11.768;2023-01-30T11:08:26;9.87;;;4.17;;
69542;SDS011;56762;49.494;11.768;2023-01-30T11:10:56;10.00;;;3.50;;
69542;SDS011;56762;49.494;11.768;2023-01-30T11:13:28;9.07;;;3.45;;
69542;SDS011;56762;49.494;11.768;2023-01-30T11:15:57;8.05;;;3.55;;
69542;SDS011;56762;49.494;11.768;2023-01-30T11:18:27;9.38;;;3.45;;
69542;SDS011;56762;49.494;11.768;2023-01-30T11:21:17;6.63;;;2.90;;
69542;SDS011;56762;49.494;11.768;2023-01-30T11:23:57;10.05;;;4.43;;
69542;SDS011;56762;49.494;11.768;2023-01-30T11:26:32;7.82;;;3.72;;
69542;SDS011;56762;49.494;11.768;2023-01-30T11:29:24;7.22;;;3.25;;
69542;SDS011;56762;49.494;11.768;2023-01-30T11:31:54;6.50;;;2.40;;
69542;SDS011;56762;49.494;11.768;2023-01-30T11:34:23;6.03;;;2.63;;
69542;SDS011;56762;49.494;11.768;2023-01-30T11:36:51;6.57;;;2.78;;
69542;SDS011;56762;49.494;11.768;2023-01-30T11:39:21;6.57;;;2.80;;
69542;SDS011;56762;49.494;11.768;2023-01-30T11:41:57;10.13;;;3.10;;
69542;SDS011;56762;49.494;11.768;2023-01-30T11:44:31;9.15;;;2.95;;
69542;SDS011;56762;49.494;11.768;2023-01-30T11:47:01;7.80;;;3.07;;
69542;SDS011;56762;49.494;11.768;2023-01-30T11:49:35;6.25;;;2.80;;
69542;SDS011;56762;49.494;11.768;2023-01-30T11:52:15;6.03;;;2.33;;
69542;SDS011;56762;49.494;11.768;2023-01-30T11:54:43;6.13;;;2.70;;
69542;SDS011;56762;49.494;11.768;2023-01-30T11:57:14;6.10;;;2.80;;
69542;SDS011;56762;49.494;11.768;2023-01-30T11:59:47;6.27;;;2.77;;
69542;SDS011;56762;49.494;11.768;2023-01-30T12:02:22;7.38;;;3.13;;
69542;SDS011;56762;49.494;11.768;2023-01-30T12:04:53;8.68;;;3.70;;
69542;SDS011;56762;49.494;11.768;2023-01-30T12:07:24;10.57;;;4.72;;
69542;SDS011;56762;49.494;11.768;2023-01-30T12:09:53;8.85;;;3.42;;
69542;SDS011;56762;49.494;11.768;2023-01-30T12:12:26;9.33;;;3.60;;
69542;SDS011;56762;49.494;11.768;2023-01-30T12:17:51;11.43;;;4.07;;
69542;SDS011;56762;49.494;11.768;2023-01-30T12:20:29;8.57;;;3.90;;
69542;SDS011;56762;49.494;11.768;2023-01-30T12:23:08;8.93;;;3.95;;
69542;SDS011;56762;49.494;11.768;2023-01-30T12:25:40;7.17;;;3.30;;
69542;SDS011;56762;49.494;11.768;2023-01-30T12:28:16;6.30;;;2.97;;
69542;SDS011;56762;49.494;11.768;2023-01-30T12:30:50;6.32;;;2.60;;
69542;SDS011;56762;49.494;11.768;2023-01-30T12:33:24;9.40;;;4.18;;
69542;SDS011;56762;49.494;11.768;2023-01-30T12:35:59;6.10;;;2.78;;
69542;SDS011;56762;49.494;11.768;2023-01-30T12:38:42;7.37;;;2.83;;
69542;SDS011;56762;49.494;11.768;2023-01-30T12:41:23;10.15;;;4.30;;
69542;SDS011;56762;49.494;11.768;2023-01-30T12:44:01;7.30;;;3.78;;
69542;SDS011;56762;49.494;11.768;2023-01-30T12:46:45;5.43;;;2.45;;
69542;SDS011;56762;49.494;11.768;2023-01-30T12:49:32;6.05;;;2.72;;
69542;SDS011;56762;49.494;11.768;2023-01-30T12:52:18;7.37;;;2.50;;
69542;SDS011;56762;49.494;11.768;2023-01-30T12:55:08;7.65;;;2.85;;
69542;SDS011;56762;49.494;11.768;2023-01-30T12:57:49;6.45;;;2.90;;
69542;SDS011;56762;49.494;11.768;2023-01-30T13:00:27;6.15;;;2.53;;
69542;SDS011;56762;49.494;11.768;2023-01-30T13:03:10;5.75;;;2.80;;
69542;SDS011;56762;49.494;11.768;2023-01-30T13:05:50;8.23;;;4.50;;
69542;SDS011;56762;49.494;11.768;2023-01-30T13:08:29;7.13;;;3.67;;
69542;SDS011;56762;49.494;11.768;2023-01-30T13:11:12;5.25;;;2.30;;
69542;SDS011;56762;49.494;11.768;2023-01-30T13:13:55;4.60;;;2.15;;
69542;SDS011;56762;49.494;11.768;2023-01-30T13:16:31;5.45;;;2.17;;
69542;SDS011;56762;49.494;11.768;2023-01-30T13:19:11;6.90;;;2.87;;
69542;SDS011;56762;49.494;11.768;2023-01-30T13:21:51;5.35;;;2.55;;
69542;SDS011;56762;49.494;11.768;2023-01-30T13:24:31;5.90;;;2.60;;
69542;SDS011;56762;49.494;11.768;2023-01-30T13:27:11;6.82;;;3.40;;
69542;SDS011;56762;49.494;11.768;2023-01-30T13:29:43;9.30;;;3.58;;
69542;SDS011;56762;49.494;11.768;2023-01-30T13:32:13;7.10;;;2.87;;
69542;SDS011;56762;49.494;11.768;2023-01-30T13:34:57;7.63;;;2.92;;
69542;SDS011;56762;49.494;11.768;2023-01-30T13:37:28;7.07;;;3.10;;
69542;SDS011;56762;49.494;11.768;2023-01-30T13:39:58;9.43;;;3.42;;
69542;SDS011;56762;49.494;11.768;2023-01-30T13:42:28;4.95;;;2.38;;
69542;SDS011;56762;49.494;11.768;2023-01-30T13:45:03;5.07;;;2.00;;
69542;SDS011;56762;49.494;11.768;2023-01-30T13:47:38;4.75;;;2.20;;
69542;SDS011;56762;49.494;11.768;2023-01-30T13:53:13;8.57;;;2.58;;
69542;SDS011;56762;49.494;11.768;2023-01-30T13:55:48;7.10;;;2.83;;
69542;SDS011;56762;49.494;11.768;2023-01-30T13:58:33;6.73;;;2.87;;
69542;SDS011;56762;49.494;11.768;2023-01-30T14:01:09;6.90;;;2.83;;
69542;SDS011;56762;49.494;11.768;2023-01-30T14:03:38;7.63;;;3.47;;
69542;SDS011;56762;49.494;11.768;2023-01-30T14:09:04;7.93;;;3.58;;
69542;SDS011;56762;49.494;11.768;2023-01-30T14:11:48;8.70;;;3.67;;
69542;SDS011;56762;49.494;11.768;2023-01-30T14:14:24;6.18;;;2.42;;
69542;SDS011;56762;49.494;11.768;2023-01-30T14:16:54;5.85;;;2.75;;
69542;SDS011;56762;49.494;11.768;2023-01-30T14:19:32;6.50;;;2.42;;
69542;SDS011;56762;49.494;11.768;2023-01-30T14:22:04;6.85;;;2.75;;
69542;SDS011;56762;49.494;11.768;2023-01-30T14:27:46;11.68;;;4.40;;
69542;SDS011;56762;49.494;11.768;2023-01-30T14:33:02;5.22;;;2.50;;
69542;SDS011;56762;49.494;11.768;2023-01-30T14:39:30;5.73;;;2.70;;
69542;SDS011;56762;49.494;11.768;2023-01-30T14:44:56;6.07;;;3.03;;
69542;SDS011;56762;49.494;11.768;2023-01-30T14:47:26;7.68;;;3.67;;
69542;SDS011;56762;49.494;11.768;2023-01-30T14:50:15;8.88;;;3.47;;
69542;SDS011;56762;49.494;11.768;2023-01-30T14:52:46;9.10;;;3.47;;
69542;SDS011;56762;49.494;11.768;2023-01-30T14:55:17;6.18;;;2.40;;
69542;SDS011;56762;49.494;11.768;2023-01-30T14:57:53;7.28;;;2.72;;
69542;SDS011;56762;49.494;11.768;2023-01-30T15:00:23;6.20;;;2.40;;
69542;SDS011;56762;49.494;11.768;2023-01-30T15:02:56;5.45;;;2.30;;
69542;SDS011;56762;49.494;11.768;2023-01-30T15:05:28;8.90;;;2.97;;
69542;SDS011;56762;49.494;11.768;2023-01-30T15:08:02;13.95;;;5.20;;
69542;SDS011;56762;49.494;11.768;2023-01-30T15:13:28;7.55;;;2.42;;
69542;SDS011;56762;49.494;11.768;2023-01-30T15:16:07;6.30;;;2.80;;
69542;SDS011;56762;49.494;11.768;2023-01-30T15:19:01;5.93;;;2.80;;
69542;SDS011;56762;49.494;11.768;2023-01-30T15:21:44;8.15;;;3.25;;